sensor_id;sensor_type;location;lat;lon;timestamp;P1;durP1;ratioP1;P2;durP2;ratioP2
26435;SDS011;15351;52.408;16.826;2022-12-29T00:00:27;11.20;;;7.87;;
26435;SDS011;15351;52.408;16.826;2022-12-29T00:02:56;12.25;;;7.70;;
26435;SDS011;15351;52.408;16.826;2022-12-29T00:05:23;12.13;;;7.33;;
26435;SDS011;15351;52.408;16.826;2022-12-29T00:07:50;11.15;;;7.20;;
26435;SDS011;15351;52.408;16.826;2022-12-29T00:10:18;11.68;;;7.70;;
26435;SDS011;15351;52.408;16.826;2022-12-29T00:12:45;12.18;;;7.53;;
26435;SDS011;15351;52.408;16.826;2022-12-29T00:15:30;11.88;;;7.42;;
26435;SDS011;15351;52.408;16.826;2022-12-29T00:18:05;12.23;;;7.08;;
26435;SDS011;15351;52.408;16.826;2022-12-29T00:20:34;11.03;;;7.00;;
26435;SDS011;15351;52.408;16.826;2022-12-29T00:23:22;12.65;;;7.85;;
26435;SDS011;15351;52.408;16.826;2022-12-29T00:26:11;11.90;;;7.27;;
26435;SDS011;15351;52.408;16.826;2022-12-29T00:28:58;12.03;;;7.00;;
26435;SDS011;15351;52.408;16.826;2022-12-29T00:31:44;11.30;;;6.37;;
26435;SDS011;15351;52.408;16.826;2022-12-29T00:34:24;11.48;;;7.10;;
26435;SDS011;15351;52.408;16.826;2022-12-29T00:37:04;11.00;;;7.12;;
26435;SDS011;15351;52.408;16.826;2022-12-29T00:39:33;13.43;;;7.30;;
26435;SDS011;15351;52.408;16.826;2022-12-29T00:42:18;12.65;;;6.92;;
26435;SDS011;15351;52.408;16.826;2022-12-29T00:44:47;10.00;;;6.67;;
26435;SDS011;15351;52.408;16.826;2022-12-29T00:47:14;10.08;;;6.80;;
26435;SDS011;15351;52.408;16.826;2022-12-29T00:49:41;10.38;;;6.50;;
26435;SDS011;15351;52.408;16.826;2022-12-29T00:52:09;10.82;;;6.22;;
26435;SDS011;15351;52.408;16.826;2022-12-29T00:54:38;9.68;;;6.12;;
26435;SDS011;15351;52.408;16.826;2022-12-29T00:57:08;8.53;;;5.87;;
26435;SDS011;15351;52.408;16.826;2022-12-29T00:59:37;8.88;;;5.62;;
26435;SDS011;15351;52.408;16.826;2022-12-29T01:02:06;9.78;;;6.08;;
26435;SDS011;15351;52.408;16.826;2022-12-29T01:04:35;8.80;;;5.70;;
26435;SDS011;15351;52.408;16.826;2022-12-29T01:07:04;7.90;;;5.47;;
26435;SDS011;15351;52.408;16.826;2022-12-29T01:09:31;8.48;;;5.35;;
26435;SDS011;15351;52.408;16.826;2022-12-29T01:12:17;8.25;;;5.58;;
26435;SDS011;15351;52.408;16.826;2022-12-29T01:14:46;8.43;;;5.73;;
26435;SDS011;15351;52.408;16.826;2022-12-29T01:17:13;8.85;;;5.42;;
26435;SDS011;15351;52.408;16.826;2022-12-29T01:19:40;8.95;;;5.20;;
26435;SDS011;15351;52.408;16.826;2022-12-29T01:22:08;7.75;;;5.35;;
26435;SDS011;15351;52.408;16.826;2022-12-29T01:24:34;7.55;;;5.30;;
26435;SDS011;15351;52.408;16.826;2022-12-29T01:27:02;8.63;;;5.65;;
26435;SDS011;15351;52.408;16.826;2022-12-29T01:29:29;7.80;;;4.97;;
26435;SDS011;15351;52.408;16.826;2022-12-29T01:31:57;8.65;;;5.10;;
26435;SDS011;15351;52.408;16.826;2022-12-29T01:34:23;8.63;;;5.00;;
26435;SDS011;15351;52.408;16.826;2022-12-29T01:36:50;7.50;;;5.10;;
26435;SDS011;15351;52.408;16.826;2022-12-29T01:39:18;9.18;;;5.53;;
26435;SDS011;15351;52.408;16.826;2022-12-29T01:41:47;8.80;;;5.33;;
26435;SDS011;15351;52.408;16.826;2022-12-29T01:47:31;8.88;;;5.53;;
26435;SDS011;15351;52.408;16.826;2022-12-29T01:50:20;8.03;;;5.40;;
26435;SDS011;15351;52.408;16.826;2022-12-29T01:53:05;9.30;;;5.65;;
26435;SDS011;15351;52.408;16.826;2022-12-29T01:55:46;8.88;;;5.28;;
26435;SDS011;15351;52.408;16.826;2022-12-29T01:58:17;8.78;;;5.30;;
26435;SDS011;15351;52.408;16.826;2022-12-29T02:00:48;6.90;;;4.87;;
26435;SDS011;15351;52.408;16.826;2022-12-29T02:03:15;9.03;;;5.40;;
26435;SDS011;15351;52.408;16.826;2022-12-29T02:05:46;8.13;;;5.20;;
26435;SDS011;15351;52.408;16.826;2022-12-29T02:08:20;8.25;;;5.30;;
26435;SDS011;15351;52.408;16.826;2022-12-29T02:10:51;7.95;;;4.92;;
26435;SDS011;15351;52.408;16.826;2022-12-29T02:13:20;6.97;;;5.03;;
26435;SDS011;15351;52.408;16.826;2022-12-29T02:19:04;10.75;;;5.30;;
26435;SDS011;15351;52.408;16.826;2022-12-29T02:21:51;7.80;;;4.90;;
26435;SDS011;15351;52.408;16.826;2022-12-29T02:32:52;9.85;;;5.60;;
26435;SDS011;15351;52.408;16.826;2022-12-29T02:38:34;9.53;;;5.50;;
26435;SDS011;15351;52.408;16.826;2022-12-29T02:44:04;8.73;;;5.60;;
26435;SDS011;15351;52.408;16.826;2022-12-29T02:46:51;7.28;;;4.75;;
26435;SDS011;15351;52.408;16.826;2022-12-29T02:52:50;6.25;;;4.65;;
26435;SDS011;15351;52.408;16.826;2022-12-29T02:55:22;8.03;;;4.90;;
26435;SDS011;15351;52.408;16.826;2022-12-29T02:57:49;8.15;;;4.90;;
26435;SDS011;15351;52.408;16.826;2022-12-29T03:00:37;8.30;;;4.60;;
26435;SDS011;15351;52.408;16.826;2022-12-29T03:06:14;6.70;;;4.60;;
26435;SDS011;15351;52.408;16.826;2022-12-29T03:08:52;7.12;;;4.72;;
26435;SDS011;15351;52.408;16.826;2022-12-29T03:11:33;8.33;;;4.75;;
26435;SDS011;15351;52.408;16.826;2022-12-29T03:14:29;6.58;;;4.15;;
26435;SDS011;15351;52.408;16.826;2022-12-29T03:17:26;6.83;;;4.50;;
26435;SDS011;15351;52.408;16.826;2022-12-29T03:20:09;6.97;;;4.75;;
26435;SDS011;15351;52.408;16.826;2022-12-29T03:22:41;6.87;;;4.60;;
26435;SDS011;15351;52.408;16.826;2022-12-29T03:27:50;6.28;;;4.33;;
26435;SDS011;15351;52.408;16.826;2022-12-29T03:30:21;6.92;;;4.58;;
26435;SDS011;15351;52.408;16.826;2022-12-29T03:32:58;6.40;;;4.40;;
26435;SDS011;15351;52.408;16.826;2022-12-29T03:35:26;8.63;;;4.77;;
26435;SDS011;15351;52.408;16.826;2022-12-29T03:38:02;9.90;;;4.60;;
26435;SDS011;15351;52.408;16.826;2022-12-29T03:40:50;7.03;;;4.65;;
26435;SDS011;15351;52.408;16.826;2022-12-29T03:43:22;6.20;;;4.60;;
26435;SDS011;15351;52.408;16.826;2022-12-29T03:45:49;7.92;;;4.47;;
26435;SDS011;15351;52.408;16.826;2022-12-29T03:48:17;7.47;;;4.40;;
26435;SDS011;15351;52.408;16.826;2022-12-29T03:50:45;7.15;;;4.40;;
26435;SDS011;15351;52.408;16.826;2022-12-29T03:53:11;5.10;;;3.98;;
26435;SDS011;15351;52.408;16.826;2022-12-29T03:55:37;6.35;;;4.22;;
26435;SDS011;15351;52.408;16.826;2022-12-29T03:58:04;6.95;;;4.40;;
26435;SDS011;15351;52.408;16.826;2022-12-29T04:00:33;6.00;;;3.87;;
26435;SDS011;15351;52.408;16.826;2022-12-29T04:03:00;6.22;;;3.98;;
26435;SDS011;15351;52.408;16.826;2022-12-29T04:05:28;5.20;;;3.90;;
26435;SDS011;15351;52.408;16.826;2022-12-29T04:07:58;5.67;;;3.77;;
26435;SDS011;15351;52.408;16.826;2022-12-29T04:10:25;7.80;;;3.93;;
26435;SDS011;15351;52.408;16.826;2022-12-29T04:12:54;5.62;;;3.98;;
26435;SDS011;15351;52.408;16.826;2022-12-29T04:15:22;6.17;;;3.60;;
26435;SDS011;15351;52.408;16.826;2022-12-29T04:17:50;4.97;;;3.85;;
26435;SDS011;15351;52.408;16.826;2022-12-29T04:20:17;6.55;;;4.00;;
26435;SDS011;15351;52.408;16.826;2022-12-29T04:23:05;6.65;;;3.85;;
26435;SDS011;15351;52.408;16.826;2022-12-29T04:25:34;6.30;;;3.70;;
26435;SDS011;15351;52.408;16.826;2022-12-29T04:28:02;5.42;;;3.52;;
26435;SDS011;15351;52.408;16.826;2022-12-29T04:30:49;5.60;;;3.35;;
26435;SDS011;15351;52.408;16.826;2022-12-29T04:33:18;4.97;;;3.90;;
26435;SDS011;15351;52.408;16.826;2022-12-29T04:35:45;5.33;;;3.70;;
26435;SDS011;15351;52.408;16.826;2022-12-29T04:38:13;7.00;;;3.70;;
26435;SDS011;15351;52.408;16.826;2022-12-29T04:40:41;6.28;;;3.62;;
26435;SDS011;15351;52.408;16.826;2022-12-29T04:43:11;5.92;;;4.00;;
26435;SDS011;15351;52.408;16.826;2022-12-29T04:45:43;6.65;;;3.70;;
26435;SDS011;15351;52.408;16.826;2022-12-29T04:48:14;5.85;;;3.85;;
26435;SDS011;15351;52.408;16.826;2022-12-29T04:50:43;5.97;;;3.67;;
26435;SDS011;15351;52.408;16.826;2022-12-29T04:53:17;6.43;;;3.73;;
26435;SDS011;15351;52.408;16.826;2022-12-29T04:55:44;6.20;;;3.97;;
26435;SDS011;15351;52.408;16.826;2022-12-29T04:58:16;6.15;;;4.08;;
26435;SDS011;15351;52.408;16.826;2022-12-29T05:00:44;6.28;;;4.03;;
26435;SDS011;15351;52.408;16.826;2022-12-29T05:03:11;6.33;;;3.87;;
26435;SDS011;15351;52.408;16.826;2022-12-29T05:05:40;4.70;;;3.53;;
26435;SDS011;15351;52.408;16.826;2022-12-29T05:08:07;5.75;;;3.62;;
26435;SDS011;15351;52.408;16.826;2022-12-29T05:10:35;6.00;;;3.77;;
26435;SDS011;15351;52.408;16.826;2022-12-29T05:13:03;5.28;;;3.55;;
26435;SDS011;15351;52.408;16.826;2022-12-29T05:15:30;4.58;;;3.52;;
26435;SDS011;15351;52.408;16.826;2022-12-29T05:17:58;6.37;;;3.52;;
26435;SDS011;15351;52.408;16.826;2022-12-29T05:20:26;6.17;;;3.90;;
26435;SDS011;15351;52.408;16.826;2022-12-29T05:22:54;5.92;;;4.17;;
26435;SDS011;15351;52.408;16.826;2022-12-29T05:25:22;6.87;;;3.83;;
26435;SDS011;15351;52.408;16.826;2022-12-29T05:27:53;6.03;;;3.70;;
26435;SDS011;15351;52.408;16.826;2022-12-29T05:30:23;5.77;;;3.60;;
26435;SDS011;15351;52.408;16.826;2022-12-29T05:32:50;5.30;;;3.70;;
26435;SDS011;15351;52.408;16.826;2022-12-29T05:35:17;5.28;;;3.80;;
26435;SDS011;15351;52.408;16.826;2022-12-29T05:37:44;5.75;;;3.67;;
26435;SDS011;15351;52.408;16.826;2022-12-29T05:40:12;5.53;;;3.60;;
26435;SDS011;15351;52.408;16.826;2022-12-29T05:42:39;5.85;;;3.62;;
26435;SDS011;15351;52.408;16.826;2022-12-29T05:45:13;5.15;;;3.65;;
26435;SDS011;15351;52.408;16.826;2022-12-29T05:47:54;5.83;;;3.90;;
26435;SDS011;15351;52.408;16.826;2022-12-29T05:50:32;5.60;;;3.72;;
26435;SDS011;15351;52.408;16.826;2022-12-29T05:53:03;6.22;;;4.00;;
26435;SDS011;15351;52.408;16.826;2022-12-29T05:55:30;5.07;;;3.60;;
26435;SDS011;15351;52.408;16.826;2022-12-29T05:57:57;5.72;;;3.77;;
26435;SDS011;15351;52.408;16.826;2022-12-29T06:00:23;5.97;;;3.80;;
26435;SDS011;15351;52.408;16.826;2022-12-29T06:02:50;6.50;;;3.90;;
26435;SDS011;15351;52.408;16.826;2022-12-29T06:05:18;6.00;;;4.08;;
26435;SDS011;15351;52.408;16.826;2022-12-29T06:07:47;5.77;;;4.40;;
26435;SDS011;15351;52.408;16.826;2022-12-29T06:10:15;7.08;;;4.80;;
26435;SDS011;15351;52.408;16.826;2022-12-29T06:12:48;7.05;;;5.35;;
26435;SDS011;15351;52.408;16.826;2022-12-29T06:15:16;5.50;;;4.10;;
26435;SDS011;15351;52.408;16.826;2022-12-29T06:17:44;7.80;;;4.27;;
26435;SDS011;15351;52.408;16.826;2022-12-29T06:20:11;5.70;;;4.10;;
26435;SDS011;15351;52.408;16.826;2022-12-29T06:22:39;6.85;;;4.72;;
26435;SDS011;15351;52.408;16.826;2022-12-29T06:25:07;8.25;;;5.25;;
26435;SDS011;15351;52.408;16.826;2022-12-29T06:27:35;8.05;;;4.92;;
26435;SDS011;15351;52.408;16.826;2022-12-29T06:30:02;6.10;;;4.37;;
26435;SDS011;15351;52.408;16.826;2022-12-29T06:32:30;6.12;;;4.20;;
26435;SDS011;15351;52.408;16.826;2022-12-29T06:34:59;5.75;;;4.25;;
26435;SDS011;15351;52.408;16.826;2022-12-29T06:37:25;6.50;;;4.33;;
26435;SDS011;15351;52.408;16.826;2022-12-29T06:39:52;6.80;;;4.05;;
26435;SDS011;15351;52.408;16.826;2022-12-29T06:42:19;7.47;;;3.90;;
26435;SDS011;15351;52.408;16.826;2022-12-29T06:44:54;5.45;;;3.80;;
26435;SDS011;15351;52.408;16.826;2022-12-29T06:47:23;7.17;;;4.03;;
26435;SDS011;15351;52.408;16.826;2022-12-29T06:49:51;5.30;;;3.70;;
26435;SDS011;15351;52.408;16.826;2022-12-29T06:52:17;5.58;;;3.90;;
26435;SDS011;15351;52.408;16.826;2022-12-29T06:54:44;5.75;;;3.67;;
26435;SDS011;15351;52.408;16.826;2022-12-29T06:57:10;6.15;;;3.87;;
26435;SDS011;15351;52.408;16.826;2022-12-29T06:59:37;6.40;;;4.35;;
26435;SDS011;15351;52.408;16.826;2022-12-29T07:02:05;6.62;;;4.22;;
26435;SDS011;15351;52.408;16.826;2022-12-29T07:04:32;7.77;;;4.07;;
26435;SDS011;15351;52.408;16.826;2022-12-29T07:07:00;5.70;;;4.08;;
26435;SDS011;15351;52.408;16.826;2022-12-29T07:09:27;6.20;;;4.15;;
26435;SDS011;15351;52.408;16.826;2022-12-29T07:11:56;5.03;;;3.87;;
26435;SDS011;15351;52.408;16.826;2022-12-29T07:14:23;6.87;;;4.10;;
26435;SDS011;15351;52.408;16.826;2022-12-29T07:16:50;7.97;;;4.35;;
26435;SDS011;15351;52.408;16.826;2022-12-29T07:19:17;6.15;;;3.90;;
26435;SDS011;15351;52.408;16.826;2022-12-29T07:21:47;6.73;;;4.33;;
26435;SDS011;15351;52.408;16.826;2022-12-29T07:24:14;6.70;;;4.85;;
26435;SDS011;15351;52.408;16.826;2022-12-29T07:26:41;8.40;;;4.72;;
26435;SDS011;15351;52.408;16.826;2022-12-29T07:29:08;6.83;;;4.45;;
26435;SDS011;15351;52.408;16.826;2022-12-29T07:31:34;8.08;;;4.53;;
26435;SDS011;15351;52.408;16.826;2022-12-29T07:34:02;6.30;;;4.37;;
26435;SDS011;15351;52.408;16.826;2022-12-29T07:36:30;7.30;;;4.60;;
26435;SDS011;15351;52.408;16.826;2022-12-29T07:38:57;6.28;;;4.33;;
26435;SDS011;15351;52.408;16.826;2022-12-29T07:41:24;6.95;;;4.65;;
26435;SDS011;15351;52.408;16.826;2022-12-29T07:43:52;8.03;;;4.58;;
26435;SDS011;15351;52.408;16.826;2022-12-29T07:46:32;5.90;;;4.08;;
26435;SDS011;15351;52.408;16.826;2022-12-29T07:48:59;5.05;;;3.80;;
26435;SDS011;15351;52.408;16.826;2022-12-29T07:51:26;7.83;;;4.40;;
26435;SDS011;15351;52.408;16.826;2022-12-29T07:53:53;7.95;;;4.85;;
26435;SDS011;15351;52.408;16.826;2022-12-29T07:56:20;7.30;;;4.80;;
26435;SDS011;15351;52.408;16.826;2022-12-29T07:58:48;6.50;;;4.47;;
26435;SDS011;15351;52.408;16.826;2022-12-29T08:01:16;7.33;;;5.08;;
26435;SDS011;15351;52.408;16.826;2022-12-29T08:03:42;6.72;;;4.95;;
26435;SDS011;15351;52.408;16.826;2022-12-29T08:06:12;7.47;;;4.70;;
26435;SDS011;15351;52.408;16.826;2022-12-29T08:08:39;5.10;;;3.65;;
26435;SDS011;15351;52.408;16.826;2022-12-29T08:11:08;5.30;;;3.80;;
26435;SDS011;15351;52.408;16.826;2022-12-29T08:13:35;5.13;;;3.80;;
26435;SDS011;15351;52.408;16.826;2022-12-29T08:16:01;6.33;;;4.50;;
26435;SDS011;15351;52.408;16.826;2022-12-29T08:18:28;6.93;;;4.03;;
26435;SDS011;15351;52.408;16.826;2022-12-29T08:20:55;11.15;;;6.65;;
26435;SDS011;15351;52.408;16.826;2022-12-29T08:23:21;9.28;;;6.72;;
26435;SDS011;15351;52.408;16.826;2022-12-29T08:25:56;8.68;;;6.30;;
26435;SDS011;15351;52.408;16.826;2022-12-29T08:28:29;8.90;;;4.97;;
26435;SDS011;15351;52.408;16.826;2022-12-29T08:31:00;6.72;;;4.10;;
26435;SDS011;15351;52.408;16.826;2022-12-29T08:33:27;6.45;;;3.60;;
26435;SDS011;15351;52.408;16.826;2022-12-29T08:36:01;4.42;;;3.20;;
26435;SDS011;15351;52.408;16.826;2022-12-29T08:38:34;4.90;;;3.47;;
26435;SDS011;15351;52.408;16.826;2022-12-29T08:41:01;5.85;;;3.70;;
26435;SDS011;15351;52.408;16.826;2022-12-29T08:43:27;7.60;;;4.30;;
26435;SDS011;15351;52.408;16.826;2022-12-29T08:45:56;7.37;;;3.90;;
26435;SDS011;15351;52.408;16.826;2022-12-29T08:48:26;5.83;;;4.00;;
26435;SDS011;15351;52.408;16.826;2022-12-29T08:50:53;6.45;;;4.17;;
26435;SDS011;15351;52.408;16.826;2022-12-29T08:53:21;6.78;;;4.47;;
26435;SDS011;15351;52.408;16.826;2022-12-29T08:55:54;8.53;;;5.42;;
26435;SDS011;15351;52.408;16.826;2022-12-29T08:58:21;9.80;;;5.13;;
26435;SDS011;15351;52.408;16.826;2022-12-29T09:00:51;7.55;;;4.92;;
26435;SDS011;15351;52.408;16.826;2022-12-29T09:03:21;7.53;;;5.10;;
26435;SDS011;15351;52.408;16.826;2022-12-29T09:05:52;7.03;;;4.87;;
26435;SDS011;15351;52.408;16.826;2022-12-29T09:08:20;8.58;;;5.35;;
26435;SDS011;15351;52.408;16.826;2022-12-29T09:10:52;8.10;;;4.70;;
26435;SDS011;15351;52.408;16.826;2022-12-29T09:13:19;8.18;;;5.03;;
26435;SDS011;15351;52.408;16.826;2022-12-29T09:15:46;7.83;;;4.87;;
26435;SDS011;15351;52.408;16.826;2022-12-29T09:18:12;8.93;;;4.58;;
26435;SDS011;15351;52.408;16.826;2022-12-29T09:20:39;6.57;;;4.43;;
26435;SDS011;15351;52.408;16.826;2022-12-29T09:23:07;6.55;;;4.15;;
26435;SDS011;15351;52.408;16.826;2022-12-29T09:25:33;7.87;;;4.58;;
26435;SDS011;15351;52.408;16.826;2022-12-29T09:28:00;7.67;;;4.80;;
26435;SDS011;15351;52.408;16.826;2022-12-29T09:30:28;7.05;;;4.80;;
26435;SDS011;15351;52.408;16.826;2022-12-29T09:32:57;7.40;;;4.53;;
26435;SDS011;15351;52.408;16.826;2022-12-29T09:35:23;7.47;;;4.60;;
26435;SDS011;15351;52.408;16.826;2022-12-29T09:37:50;7.25;;;4.45;;
26435;SDS011;15351;52.408;16.826;2022-12-29T09:40:21;6.90;;;4.25;;
26435;SDS011;15351;52.408;16.826;2022-12-29T09:45:42;7.60;;;4.12;;
26435;SDS011;15351;52.408;16.826;2022-12-29T09:48:35;7.17;;;4.58;;
26435;SDS011;15351;52.408;16.826;2022-12-29T09:51:15;7.42;;;4.15;;
26435;SDS011;15351;52.408;16.826;2022-12-29T09:53:42;5.95;;;3.98;;
26435;SDS011;15351;52.408;16.826;2022-12-29T09:56:17;6.50;;;4.20;;
26435;SDS011;15351;52.408;16.826;2022-12-29T09:58:52;7.05;;;4.30;;
26435;SDS011;15351;52.408;16.826;2022-12-29T10:01:47;7.20;;;4.08;;
26435;SDS011;15351;52.408;16.826;2022-12-29T10:04:27;6.12;;;4.12;;
26435;SDS011;15351;52.408;16.826;2022-12-29T10:06:59;6.12;;;4.03;;
26435;SDS011;15351;52.408;16.826;2022-12-29T10:24:17;5.95;;;4.12;;
26435;SDS011;15351;52.408;16.826;2022-12-29T10:26:48;6.70;;;4.40;;
26435;SDS011;15351;52.408;16.826;2022-12-29T10:29:20;7.12;;;4.22;;
26435;SDS011;15351;52.408;16.826;2022-12-29T10:31:54;6.95;;;4.30;;
26435;SDS011;15351;52.408;16.826;2022-12-29T10:34:29;6.90;;;4.10;;
26435;SDS011;15351;52.408;16.826;2022-12-29T10:39:57;7.05;;;4.00;;
26435;SDS011;15351;52.408;16.826;2022-12-29T10:45:11;7.40;;;4.10;;
26435;SDS011;15351;52.408;16.826;2022-12-29T10:47:53;6.83;;;4.20;;
26435;SDS011;15351;52.408;16.826;2022-12-29T10:50:29;7.75;;;4.20;;
26435;SDS011;15351;52.408;16.826;2022-12-29T10:52:59;6.72;;;4.12;;
26435;SDS011;15351;52.408;16.826;2022-12-29T10:55:32;6.10;;;4.33;;
26435;SDS011;15351;52.408;16.826;2022-12-29T10:58:04;6.87;;;4.28;;
26435;SDS011;15351;52.408;16.826;2022-12-29T11:00:37;7.33;;;4.20;;
26435;SDS011;15351;52.408;16.826;2022-12-29T11:06:13;7.65;;;4.40;;
26435;SDS011;15351;52.408;16.826;2022-12-29T11:08:54;7.65;;;4.22;;
26435;SDS011;15351;52.408;16.826;2022-12-29T11:11:34;6.10;;;3.60;;
26435;SDS011;15351;52.408;16.826;2022-12-29T11:17:02;5.83;;;3.95;;
26435;SDS011;15351;52.408;16.826;2022-12-29T11:19:31;6.40;;;3.83;;
26435;SDS011;15351;52.408;16.826;2022-12-29T11:22:12;6.05;;;3.83;;
26435;SDS011;15351;52.408;16.826;2022-12-29T11:24:50;6.75;;;3.58;;
26435;SDS011;15351;52.408;16.826;2022-12-29T11:27:23;6.20;;;3.77;;
26435;SDS011;15351;52.408;16.826;2022-12-29T11:29:53;6.43;;;3.70;;
26435;SDS011;15351;52.408;16.826;2022-12-29T11:34:52;7.45;;;4.45;;
26435;SDS011;15351;52.408;16.826;2022-12-29T11:37:19;7.95;;;4.20;;
26435;SDS011;15351;52.408;16.826;2022-12-29T11:40:06;7.72;;;4.28;;
26435;SDS011;15351;52.408;16.826;2022-12-29T11:42:53;6.28;;;4.03;;
26435;SDS011;15351;52.408;16.826;2022-12-29T11:45:36;6.90;;;3.50;;
26435;SDS011;15351;52.408;16.826;2022-12-29T11:48:08;8.03;;;4.05;;
26435;SDS011;15351;52.408;16.826;2022-12-29T11:50:42;5.78;;;3.55;;
26435;SDS011;15351;52.408;16.826;2022-12-29T11:53:24;6.57;;;4.10;;
26435;SDS011;15351;52.408;16.826;2022-12-29T11:56:04;7.30;;;3.83;;
26435;SDS011;15351;52.408;16.826;2022-12-29T11:58:35;6.28;;;3.77;;
26435;SDS011;15351;52.408;16.826;2022-12-29T12:01:05;5.83;;;3.90;;
26435;SDS011;15351;52.408;16.826;2022-12-29T12:06:33;8.13;;;3.70;;
26435;SDS011;15351;52.408;16.826;2022-12-29T12:09:14;6.10;;;3.70;;
26435;SDS011;15351;52.408;16.826;2022-12-29T12:11:48;5.67;;;3.67;;
26435;SDS011;15351;52.408;16.826;2022-12-29T12:14:32;6.08;;;3.72;;
26435;SDS011;15351;52.408;16.826;2022-12-29T12:17:17;6.33;;;3.70;;
26435;SDS011;15351;52.408;16.826;2022-12-29T12:19:57;5.93;;;3.60;;
26435;SDS011;15351;52.408;16.826;2022-12-29T12:22:34;7.58;;;3.50;;
26435;SDS011;15351;52.408;16.826;2022-12-29T12:30:45;6.00;;;3.70;;
26435;SDS011;15351;52.408;16.826;2022-12-29T12:33:18;5.10;;;3.27;;
26435;SDS011;15351;52.408;16.826;2022-12-29T12:39:40;5.80;;;3.42;;
26435;SDS011;15351;52.408;16.826;2022-12-29T12:41:43;6.12;;;3.40;;
26435;SDS011;15351;52.408;16.826;2022-12-29T12:47:24;5.67;;;3.22;;
26435;SDS011;15351;52.408;16.826;2022-12-29T12:53:05;7.65;;;3.72;;
26435;SDS011;15351;52.408;16.826;2022-12-29T13:01:58;7.10;;;3.70;;
26435;SDS011;15351;52.408;16.826;2022-12-29T13:08:01;5.08;;;3.00;;
26435;SDS011;15351;52.408;16.826;2022-12-29T13:14:00;6.05;;;3.40;;
26435;SDS011;15351;52.408;16.826;2022-12-29T13:28:56;5.12;;;3.25;;
26435;SDS011;15351;52.408;16.826;2022-12-29T13:40:23;6.72;;;3.00;;
26435;SDS011;15351;52.408;16.826;2022-12-29T13:42:52;5.80;;;3.10;;
26435;SDS011;15351;52.408;16.826;2022-12-29T13:45:24;5.47;;;2.90;;
26435;SDS011;15351;52.408;16.826;2022-12-29T13:47:57;5.80;;;3.30;;
26435;SDS011;15351;52.408;16.826;2022-12-29T13:50:29;4.30;;;3.00;;
26435;SDS011;15351;52.408;16.826;2022-12-29T13:55:52;6.67;;;3.60;;
26435;SDS011;15351;52.408;16.826;2022-12-29T14:01:22;4.23;;;2.77;;
26435;SDS011;15351;52.408;16.826;2022-12-29T14:03:56;7.10;;;3.30;;
26435;SDS011;15351;52.408;16.826;2022-12-29T14:06:35;7.93;;;4.13;;
26435;SDS011;15351;52.408;16.826;2022-12-29T14:09:03;7.67;;;4.20;;
26435;SDS011;15351;52.408;16.826;2022-12-29T14:11:35;9.30;;;5.00;;
26435;SDS011;15351;52.408;16.826;2022-12-29T14:14:12;8.50;;;4.97;;
26435;SDS011;15351;52.408;16.826;2022-12-29T14:16:53;9.28;;;5.28;;
26435;SDS011;15351;52.408;16.826;2022-12-29T14:19:30;8.50;;;5.17;;
26435;SDS011;15351;52.408;16.826;2022-12-29T14:22:03;10.23;;;4.80;;
26435;SDS011;15351;52.408;16.826;2022-12-29T14:29:42;8.55;;;4.70;;
26435;SDS011;15351;52.408;16.826;2022-12-29T14:33:00;9.37;;;5.03;;
26435;SDS011;15351;52.408;16.826;2022-12-29T14:34:58;9.35;;;5.47;;
26435;SDS011;15351;52.408;16.826;2022-12-29T14:37:27;9.35;;;5.62;;
26435;SDS011;15351;52.408;16.826;2022-12-29T14:42:53;14.85;;;7.80;;
26435;SDS011;15351;52.408;16.826;2022-12-29T14:45:57;13.88;;;8.48;;
26435;SDS011;15351;52.408;16.826;2022-12-29T14:51:30;14.20;;;8.75;;
26435;SDS011;15351;52.408;16.826;2022-12-29T14:57:06;14.50;;;8.38;;
26435;SDS011;15351;52.408;16.826;2022-12-29T14:59:40;13.60;;;8.78;;
26435;SDS011;15351;52.408;16.826;2022-12-29T15:02:16;14.18;;;9.38;;
26435;SDS011;15351;52.408;16.826;2022-12-29T15:04:52;16.40;;;9.40;;
26435;SDS011;15351;52.408;16.826;2022-12-29T15:07:24;13.80;;;9.05;;
26435;SDS011;15351;52.408;16.826;2022-12-29T15:09:59;14.53;;;8.17;;
26435;SDS011;15351;52.408;16.826;2022-12-29T15:12:50;11.48;;;7.33;;
26435;SDS011;15351;52.408;16.826;2022-12-29T15:18:24;13.05;;;8.13;;
26435;SDS011;15351;52.408;16.826;2022-12-29T15:21:01;10.08;;;6.55;;
26435;SDS011;15351;52.408;16.826;2022-12-29T15:23:38;11.12;;;6.90;;
26435;SDS011;15351;52.408;16.826;2022-12-29T15:26:11;11.08;;;6.62;;
26435;SDS011;15351;52.408;16.826;2022-12-29T15:28:41;12.50;;;6.42;;
26435;SDS011;15351;52.408;16.826;2022-12-29T15:31:19;9.80;;;5.28;;
26435;SDS011;15351;52.408;16.826;2022-12-29T15:34:02;10.08;;;5.60;;
26435;SDS011;15351;52.408;16.826;2022-12-29T15:36:49;9.87;;;5.67;;
26435;SDS011;15351;52.408;16.826;2022-12-29T15:39:30;8.03;;;5.08;;
26435;SDS011;15351;52.408;16.826;2022-12-29T15:45:15;9.28;;;6.12;;
26435;SDS011;15351;52.408;16.826;2022-12-29T15:47:46;11.67;;;6.23;;
26435;SDS011;15351;52.408;16.826;2022-12-29T15:50:23;10.95;;;5.97;;
26435;SDS011;15351;52.408;16.826;2022-12-29T15:52:56;8.73;;;6.05;;
26435;SDS011;15351;52.408;16.826;2022-12-29T15:55:34;10.67;;;6.53;;
26435;SDS011;15351;52.408;16.826;2022-12-29T15:58:17;11.30;;;7.37;;
26435;SDS011;15351;52.408;16.826;2022-12-29T16:00:50;12.43;;;7.35;;
26435;SDS011;15351;52.408;16.826;2022-12-29T16:03:32;13.50;;;8.25;;
26435;SDS011;15351;52.408;16.826;2022-12-29T16:11:52;13.75;;;8.63;;
26435;SDS011;15351;52.408;16.826;2022-12-29T16:14:28;14.38;;;8.65;;
26435;SDS011;15351;52.408;16.826;2022-12-29T16:17:15;13.43;;;8.63;;
26435;SDS011;15351;52.408;16.826;2022-12-29T16:19:58;12.82;;;8.80;;
26435;SDS011;15351;52.408;16.826;2022-12-29T16:25:35;14.85;;;9.70;;
26435;SDS011;15351;52.408;16.826;2022-12-29T16:28:21;14.73;;;9.40;;
26435;SDS011;15351;52.408;16.826;2022-12-29T16:30:59;13.80;;;8.88;;
26435;SDS011;15351;52.408;16.826;2022-12-29T16:33:54;13.65;;;9.08;;
26435;SDS011;15351;52.408;16.826;2022-12-29T16:39:28;13.43;;;8.05;;
26435;SDS011;15351;52.408;16.826;2022-12-29T16:41:56;13.15;;;8.30;;
26435;SDS011;15351;52.408;16.826;2022-12-29T16:44:24;14.15;;;9.43;;
26435;SDS011;15351;52.408;16.826;2022-12-29T16:49:54;12.73;;;8.30;;
26435;SDS011;15351;52.408;16.826;2022-12-29T16:52:33;15.00;;;8.33;;
26435;SDS011;15351;52.408;16.826;2022-12-29T16:55:14;15.25;;;8.83;;
26435;SDS011;15351;52.408;16.826;2022-12-29T16:58:03;14.78;;;8.43;;
26435;SDS011;15351;52.408;16.826;2022-12-29T17:00:34;15.03;;;9.17;;
26435;SDS011;15351;52.408;16.826;2022-12-29T17:03:04;14.50;;;9.78;;
26435;SDS011;15351;52.408;16.826;2022-12-29T17:05:36;17.92;;;10.45;;
26435;SDS011;15351;52.408;16.826;2022-12-29T17:08:17;19.05;;;12.50;;
26435;SDS011;15351;52.408;16.826;2022-12-29T17:10:50;19.73;;;12.10;;
26435;SDS011;15351;52.408;16.826;2022-12-29T17:13:39;16.82;;;9.90;;
26435;SDS011;15351;52.408;16.826;2022-12-29T17:16:19;15.93;;;9.53;;
26435;SDS011;15351;52.408;16.826;2022-12-29T17:18:44;13.30;;;9.03;;
26435;SDS011;15351;52.408;16.826;2022-12-29T17:21:18;12.90;;;8.83;;
26435;SDS011;15351;52.408;16.826;2022-12-29T17:23:50;12.33;;;7.58;;
26435;SDS011;15351;52.408;16.826;2022-12-29T17:32:34;13.73;;;8.67;;
26435;SDS011;15351;52.408;16.826;2022-12-29T17:38:56;13.20;;;8.63;;
26435;SDS011;15351;52.408;16.826;2022-12-29T17:41:38;14.50;;;8.78;;
26435;SDS011;15351;52.408;16.826;2022-12-29T17:44:42;13.03;;;7.95;;
26435;SDS011;15351;52.408;16.826;2022-12-29T17:47:10;13.88;;;7.80;;